sensor_id;sensor_type;location;lat;lon;timestamp;temperature;humidity
50544;DHT22;41176;44.032;20.900;2022-11-15T00:01:57;9.80;99.90
50544;DHT22;41176;44.032;20.900;2022-11-15T00:04:23;9.90;99.90
50544;DHT22;41176;44.032;20.900;2022-11-15T00:06:49;9.90;99.90
50544;DHT22;41176;44.032;20.900;2022-11-15T00:09:15;9.90;99.90
50544;DHT22;41176;44.032;20.900;2022-11-15T00:11:40;9.80;99.90
50544;DHT22;41176;44.032;20.900;2022-11-15T00:14:06;9.80;99.90
50544;DHT22;41176;44.032;20.900;2022-11-15T00:16:32;9.70;99.90
50544;DHT22;41176;44.032;20.900;2022-11-15T00:18:58;9.70;99.90
50544;DHT22;41176;44.032;20.900;2022-11-15T00:21:23;9.70;99.90
50544;DHT22;41176;44.032;20.900;2022-11-15T00:23:49;9.60;99.90
50544;DHT22;41176;44.032;20.900;2022-11-15T00:26:15;9.60;99.90
50544;DHT22;41176;44.032;20.900;2022-11-15T00:28:41;9.60;99.90
50544;DHT22;41176;44.032;20.900;2022-11-15T00:31:12;9.60;99.90
50544;DHT22;41176;44.032;20.900;2022-11-15T00:33:38;9.60;99.90
50544;DHT22;41176;44.032;20.900;2022-11-15T00:36:05;9.50;99.90
50544;DHT22;41176;44.032;20.900;2022-11-15T00:38:32;9.50;99.90
50544;DHT22;41176;44.032;20.900;2022-11-15T00:40:59;9.50;99.90
50544;DHT22;41176;44.032;20.900;2022-11-15T00:43:25;9.50;99.90
50544;DHT22;41176;44.032;20.900;2022-11-15T00:45:50;9.40;99.90
50544;DHT22;41176;44.032;20.900;2022-11-15T00:48:16;9.40;99.90
50544;DHT22;41176;44.032;20.900;2022-11-15T00:50:42;9.30;99.90
50544;DHT22;41176;44.032;20.900;2022-11-15T00:53:07;9.30;99.90
50544;DHT22;41176;44.032;20.900;2022-11-15T00:55:33;9.30;99.90
50544;DHT22;41176;44.032;20.900;2022-11-15T00:57:59;9.30;99.90
50544;DHT22;41176;44.032;20.900;2022-11-15T01:00:25;9.30;99.90
50544;DHT22;41176;44.032;20.900;2022-11-15T01:02:50;9.30;99.90
50544;DHT22;41176;44.032;20.900;2022-11-15T01:05:16;9.30;99.90
50544;DHT22;41176;44.032;20.900;2022-11-15T01:07:42;9.20;99.90
50544;DHT22;41176;44.032;20.900;2022-11-15T01:10:08;9.20;99.90
50544;DHT22;41176;44.032;20.900;2022-11-15T01:12:34;9.20;99.90
50544;DHT22;41176;44.032;20.900;2022-11-15T01:15:00;9.20;99.90
50544;DHT22;41176;44.032;20.900;2022-11-15T01:17:25;9.20;99.90
50544;DHT22;41176;44.032;20.900;2022-11-15T01:19:51;9.10;99.90
50544;DHT22;41176;44.032;20.900;2022-11-15T01:22:17;9.10;99.90
50544;DHT22;41176;44.032;20.900;2022-11-15T01:24:43;9.00;99.90
50544;DHT22;41176;44.032;20.900;2022-11-15T01:27:08;9.00;99.90
50544;DHT22;41176;44.032;20.900;2022-11-15T01:29:34;9.00;99.90
50544;DHT22;41176;44.032;20.900;2022-11-15T01:32:00;9.00;99.90
50544;DHT22;41176;44.032;20.900;2022-11-15T01:34:26;9.10;99.90
50544;DHT22;41176;44.032;20.900;2022-11-15T01:36:51;9.20;99.90
50544;DHT22;41176;44.032;20.900;2022-11-15T01:39:17;9.20;99.90
50544;DHT22;41176;44.032;20.900;2022-11-15T01:41:43;9.10;99.90
50544;DHT22;41176;44.032;20.900;2022-11-15T01:47:00;9.10;99.90
50544;DHT22;41176;44.032;20.900;2022-11-15T01:49:27;9.10;99.90
50544;DHT22;41176;44.032;20.900;2022-11-15T01:51:56;9.20;99.90
50544;DHT22;41176;44.032;20.900;2022-11-15T01:54:23;9.20;99.90
50544;DHT22;41176;44.032;20.900;2022-11-15T01:56:54;9.30;99.90
50544;DHT22;41176;44.032;20.900;2022-11-15T01:59:22;9.20;99.90
50544;DHT22;41176;44.032;20.900;2022-11-15T02:01:48;9.30;99.90
50544;DHT22;41176;44.032;20.900;2022-11-15T02:04:54;9.30;99.90
50544;DHT22;41176;44.032;20.900;2022-11-15T02:07:16;9.40;99.90
50544;DHT22;41176;44.032;20.900;2022-11-15T02:09:43;9.40;99.90
50544;DHT22;41176;44.032;20.900;2022-11-15T02:12:10;9.40;99.90
50544;DHT22;41176;44.032;20.900;2022-11-15T02:14:39;9.40;99.90
50544;DHT22;41176;44.032;20.900;2022-11-15T02:26:18;9.50;99.90
50544;DHT22;41176;44.032;20.900;2022-11-15T02:28:58;9.50;99.90
50544;DHT22;41176;44.032;20.900;2022-11-15T02:31:28;9.50;99.90
50544;DHT22;41176;44.032;20.900;2022-11-15T02:34:12;9.40;99.90
50544;DHT22;41176;44.032;20.900;2022-11-15T02:39:47;9.30;99.90
50544;DHT22;41176;44.032;20.900;2022-11-15T02:42:21;9.20;99.90
50544;DHT22;41176;44.032;20.900;2022-11-15T02:45:09;9.20;99.90
50544;DHT22;41176;44.032;20.900;2022-11-15T02:47:44;9.10;99.90
50544;DHT22;41176;44.032;20.900;2022-11-15T02:50:16;9.10;99.90
50544;DHT22;41176;44.032;20.900;2022-11-15T02:52:46;9.00;99.90
50544;DHT22;41176;44.032;20.900;2022-11-15T02:55:33;9.00;99.90
50544;DHT22;41176;44.032;20.900;2022-11-15T03:09:21;9.00;99.90
50544;DHT22;41176;44.032;20.900;2022-11-15T03:12:14;9.00;99.90
50544;DHT22;41176;44.032;20.900;2022-11-15T03:17:43;9.00;99.90
50544;DHT22;41176;44.032;20.900;2022-11-15T03:20:13;9.10;99.90
50544;DHT22;41176;44.032;20.900;2022-11-15T03:22:44;9.10;99.90
50544;DHT22;41176;44.032;20.900;2022-11-15T03:25:13;9.10;99.90
50544;DHT22;41176;44.032;20.900;2022-11-15T03:27:44;9.10;99.90
50544;DHT22;41176;44.032;20.900;2022-11-15T03:30:13;9.20;99.90
50544;DHT22;41176;44.032;20.900;2022-11-15T03:33:03;9.20;99.90
50544;DHT22;41176;44.032;20.900;2022-11-15T03:35:34;9.10;99.90
50544;DHT22;41176;44.032;20.900;2022-11-15T03:38:15;8.90;99.90
50544;DHT22;41176;44.032;20.900;2022-11-15T03:46:32;8.70;99.90
50544;DHT22;41176;44.032;20.900;2022-11-15T03:49:09;8.60;99.90
50544;DHT22;41176;44.032;20.900;2022-11-15T03:51:36;8.60;99.90
50544;DHT22;41176;44.032;20.900;2022-11-15T03:54:07;8.60;99.90
50544;DHT22;41176;44.032;20.900;2022-11-15T03:56:32;8.70;99.90
50544;DHT22;41176;44.032;20.900;2022-11-15T03:58:58;8.60;99.90
50544;DHT22;41176;44.032;20.900;2022-11-15T04:01:27;8.60;99.90
50544;DHT22;41176;44.032;20.900;2022-11-15T04:03:52;8.70;99.90
50544;DHT22;41176;44.032;20.900;2022-11-15T04:06:18;8.80;99.90
50544;DHT22;41176;44.032;20.900;2022-11-15T04:08:44;8.80;99.90
50544;DHT22;41176;44.032;20.900;2022-11-15T04:11:10;8.70;99.90
50544;DHT22;41176;44.032;20.900;2022-11-15T04:13:35;8.70;99.90
50544;DHT22;41176;44.032;20.900;2022-11-15T04:16:01;8.70;99.90
50544;DHT22;41176;44.032;20.900;2022-11-15T04:18:27;8.70;99.90
50544;DHT22;41176;44.032;20.900;2022-11-15T04:20:55;8.60;99.90
50544;DHT22;41176;44.032;20.900;2022-11-15T04:23:39;8.50;99.90
50544;DHT22;41176;44.032;20.900;2022-11-15T04:26:23;8.50;99.90
50544;DHT22;41176;44.032;20.900;2022-11-15T04:28:51;8.60;99.90
50544;DHT22;41176;44.032;20.900;2022-11-15T04:31:36;8.60;99.90
50544;DHT22;41176;44.032;20.900;2022-11-15T04:34:01;8.50;99.90
50544;DHT22;41176;44.032;20.900;2022-11-15T04:36:27;8.40;99.90
50544;DHT22;41176;44.032;20.900;2022-11-15T04:39:11;8.40;99.90
50544;DHT22;41176;44.032;20.900;2022-11-15T04:41:38;8.30;99.90
50544;DHT22;41176;44.032;20.900;2022-11-15T04:44:04;8.30;99.90
50544;DHT22;41176;44.032;20.900;2022-11-15T04:46:30;8.30;99.90
50544;DHT22;41176;44.032;20.900;2022-11-15T04:48:56;8.30;99.90
50544;DHT22;41176;44.032;20.900;2022-11-15T04:51:22;8.30;99.90
50544;DHT22;41176;44.032;20.900;2022-11-15T04:53:47;8.20;99.90
50544;DHT22;41176;44.032;20.900;2022-11-15T04:56:13;8.20;99.90
50544;DHT22;41176;44.032;20.900;2022-11-15T04:58:39;8.10;99.90
50544;DHT22;41176;44.032;20.900;2022-11-15T05:03:34;8.00;99.90
50544;DHT22;41176;44.032;20.900;2022-11-15T05:06:18;8.00;99.90
50544;DHT22;41176;44.032;20.900;2022-11-15T05:08:43;8.10;99.90
50544;DHT22;41176;44.032;20.900;2022-11-15T05:11:09;8.10;99.90
50544;DHT22;41176;44.032;20.900;2022-11-15T05:13:37;8.10;99.90
50544;DHT22;41176;44.032;20.900;2022-11-15T05:16:03;8.20;99.90
50544;DHT22;41176;44.032;20.900;2022-11-15T05:18:29;8.20;99.90
50544;DHT22;41176;44.032;20.900;2022-11-15T05:20:55;8.10;99.90
50544;DHT22;41176;44.032;20.900;2022-11-15T05:23:20;8.00;99.90
50544;DHT22;41176;44.032;20.900;2022-11-15T05:25:46;8.10;99.90
50544;DHT22;41176;44.032;20.900;2022-11-15T05:28:12;8.10;99.90
50544;DHT22;41176;44.032;20.900;2022-11-15T05:30:38;8.10;99.90
50544;DHT22;41176;44.032;20.900;2022-11-15T05:33:04;8.10;99.90
50544;DHT22;41176;44.032;20.900;2022-11-15T05:35:41;8.20;99.90
50544;DHT22;41176;44.032;20.900;2022-11-15T05:38:08;8.20;99.90
50544;DHT22;41176;44.032;20.900;2022-11-15T05:40:34;8.20;99.90
50544;DHT22;41176;44.032;20.900;2022-11-15T05:43:02;8.30;99.90
50544;DHT22;41176;44.032;20.900;2022-11-15T05:45:29;8.40;99.90
50544;DHT22;41176;44.032;20.900;2022-11-15T05:47:56;8.50;99.90
50544;DHT22;41176;44.032;20.900;2022-11-15T05:50:24;8.60;99.90
50544;DHT22;41176;44.032;20.900;2022-11-15T05:52:50;8.70;99.90
50544;DHT22;41176;44.032;20.900;2022-11-15T05:55:16;8.70;99.90
50544;DHT22;41176;44.032;20.900;2022-11-15T05:57:42;8.70;99.90
50544;DHT22;41176;44.032;20.900;2022-11-15T06:00:09;8.70;99.90
50544;DHT22;41176;44.032;20.900;2022-11-15T06:02:35;8.70;99.90
50544;DHT22;41176;44.032;20.900;2022-11-15T06:05:01;8.90;99.90
50544;DHT22;41176;44.032;20.900;2022-11-15T06:07:26;9.00;99.90
50544;DHT22;41176;44.032;20.900;2022-11-15T06:09:54;9.10;99.90
50544;DHT22;41176;44.032;20.900;2022-11-15T06:12:19;9.20;99.90
50544;DHT22;41176;44.032;20.900;2022-11-15T06:14:45;9.30;99.90
50544;DHT22;41176;44.032;20.900;2022-11-15T06:17:11;9.30;99.90
50544;DHT22;41176;44.032;20.900;2022-11-15T06:19:36;9.40;99.90
50544;DHT22;41176;44.032;20.900;2022-11-15T06:22:02;9.50;99.90
50544;DHT22;41176;44.032;20.900;2022-11-15T06:24:28;9.60;99.90
50544;DHT22;41176;44.032;20.900;2022-11-15T06:26:54;9.70;99.90
50544;DHT22;41176;44.032;20.900;2022-11-15T06:29:19;9.90;99.90
50544;DHT22;41176;44.032;20.900;2022-11-15T06:31:45;10.10;99.90
50544;DHT22;41176;44.032;20.900;2022-11-15T06:34:11;10.20;99.90
50544;DHT22;41176;44.032;20.900;2022-11-15T06:36:37;10.50;99.90
50544;DHT22;41176;44.032;20.900;2022-11-15T06:39:04;10.40;99.90
50544;DHT22;41176;44.032;20.900;2022-11-15T06:41:30;10.30;99.90
50544;DHT22;41176;44.032;20.900;2022-11-15T06:43:57;10.30;99.90
50544;DHT22;41176;44.032;20.900;2022-11-15T06:46:22;10.20;99.90
50544;DHT22;41176;44.032;20.900;2022-11-15T06:48:51;10.20;99.90
50544;DHT22;41176;44.032;20.900;2022-11-15T06:51:17;10.30;99.90
50544;DHT22;41176;44.032;20.900;2022-11-15T06:53:43;10.30;99.90
50544;DHT22;41176;44.032;20.900;2022-11-15T06:56:08;10.20;99.90
50544;DHT22;41176;44.032;20.900;2022-11-15T06:58:35;10.30;99.90
50544;DHT22;41176;44.032;20.900;2022-11-15T07:01:04;10.30;99.90
50544;DHT22;41176;44.032;20.900;2022-11-15T07:03:30;10.30;99.90
50544;DHT22;41176;44.032;20.900;2022-11-15T07:05:56;10.20;99.90
50544;DHT22;41176;44.032;20.900;2022-11-15T07:08:24;10.20;99.90
50544;DHT22;41176;44.032;20.900;2022-11-15T07:10:50;10.20;99.90
50544;DHT22;41176;44.032;20.900;2022-11-15T07:13:16;10.20;99.90
50544;DHT22;41176;44.032;20.900;2022-11-15T07:15:41;10.20;99.90
50544;DHT22;41176;44.032;20.900;2022-11-15T07:18:07;10.20;99.90
50544;DHT22;41176;44.032;20.900;2022-11-15T07:20:33;10.20;99.90
50544;DHT22;41176;44.032;20.900;2022-11-15T07:23:05;10.20;99.90
50544;DHT22;41176;44.032;20.900;2022-11-15T07:25:31;10.20;99.90
50544;DHT22;41176;44.032;20.900;2022-11-15T07:27:58;10.20;99.90
50544;DHT22;41176;44.032;20.900;2022-11-15T07:30:27;10.20;99.90
50544;DHT22;41176;44.032;20.900;2022-11-15T07:33:04;10.20;99.90
50544;DHT22;41176;44.032;20.900;2022-11-15T07:35:30;10.30;99.90
50544;DHT22;41176;44.032;20.900;2022-11-15T07:38:03;10.20;99.90
50544;DHT22;41176;44.032;20.900;2022-11-15T07:40:30;10.30;99.90
50544;DHT22;41176;44.032;20.900;2022-11-15T07:43:05;10.40;99.90
50544;DHT22;41176;44.032;20.900;2022-11-15T07:45:31;10.50;99.90
50544;DHT22;41176;44.032;20.900;2022-11-15T07:47:59;10.50;99.90
50544;DHT22;41176;44.032;20.900;2022-11-15T07:50:26;10.60;99.90
50544;DHT22;41176;44.032;20.900;2022-11-15T07:52:55;10.60;99.90
50544;DHT22;41176;44.032;20.900;2022-11-15T07:55:23;10.60;99.90
50544;DHT22;41176;44.032;20.900;2022-11-15T07:57:48;10.60;99.90
50544;DHT22;41176;44.032;20.900;2022-11-15T08:00:14;10.80;99.90
50544;DHT22;41176;44.032;20.900;2022-11-15T08:02:44;10.80;99.90
50544;DHT22;41176;44.032;20.900;2022-11-15T08:05:16;10.80;99.90
50544;DHT22;41176;44.032;20.900;2022-11-15T08:07:41;10.80;99.90
50544;DHT22;41176;44.032;20.900;2022-11-15T08:10:07;10.70;99.90
50544;DHT22;41176;44.032;20.900;2022-11-15T08:12:33;10.80;99.90
50544;DHT22;41176;44.032;20.900;2022-11-15T08:15:02;10.90;99.90
50544;DHT22;41176;44.032;20.900;2022-11-15T08:17:28;10.90;99.90
50544;DHT22;41176;44.032;20.900;2022-11-15T08:19:57;11.00;99.90
50544;DHT22;41176;44.032;20.900;2022-11-15T08:22:22;11.10;99.90
50544;DHT22;41176;44.032;20.900;2022-11-15T08:24:48;11.00;99.90
50544;DHT22;41176;44.032;20.900;2022-11-15T08:27:14;11.00;99.90
50544;DHT22;41176;44.032;20.900;2022-11-15T08:29:46;11.10;99.90
50544;DHT22;41176;44.032;20.900;2022-11-15T08:32:12;11.10;99.90
50544;DHT22;41176;44.032;20.900;2022-11-15T08:34:38;11.20;99.90
50544;DHT22;41176;44.032;20.900;2022-11-15T08:37:04;11.30;99.90
50544;DHT22;41176;44.032;20.900;2022-11-15T08:39:30;11.30;99.90
50544;DHT22;41176;44.032;20.900;2022-11-15T08:41:56;11.30;99.90
50544;DHT22;41176;44.032;20.900;2022-11-15T08:44:22;11.40;99.90
50544;DHT22;41176;44.032;20.900;2022-11-15T08:46:49;11.40;99.90
50544;DHT22;41176;44.032;20.900;2022-11-15T08:49:15;11.50;99.90
50544;DHT22;41176;44.032;20.900;2022-11-15T08:51:41;11.70;99.90
50544;DHT22;41176;44.032;20.900;2022-11-15T08:54:07;11.80;99.90
50544;DHT22;41176;44.032;20.900;2022-11-15T08:56:32;12.00;99.90
50544;DHT22;41176;44.032;20.900;2022-11-15T08:58:58;12.30;99.90
50544;DHT22;41176;44.032;20.900;2022-11-15T09:01:24;12.60;99.90
50544;DHT22;41176;44.032;20.900;2022-11-15T09:03:49;12.90;99.90
50544;DHT22;41176;44.032;20.900;2022-11-15T09:06:15;13.00;99.90
50544;DHT22;41176;44.032;20.900;2022-11-15T09:08:41;13.20;99.90
50544;DHT22;41176;44.032;20.900;2022-11-15T09:11:08;13.50;99.90
50544;DHT22;41176;44.032;20.900;2022-11-15T09:13:37;13.70;99.90
50544;DHT22;41176;44.032;20.900;2022-11-15T09:16:06;13.90;99.90
50544;DHT22;41176;44.032;20.900;2022-11-15T09:18:32;13.90;99.90
50544;DHT22;41176;44.032;20.900;2022-11-15T09:20:58;14.00;99.20
50544;DHT22;41176;44.032;20.900;2022-11-15T09:23:25;14.10;98.50
50544;DHT22;41176;44.032;20.900;2022-11-15T09:25:52;14.10;98.70
50544;DHT22;41176;44.032;20.900;2022-11-15T09:28:18;14.50;96.00
50544;DHT22;41176;44.032;20.900;2022-11-15T09:30:44;14.60;95.70
50544;DHT22;41176;44.032;20.900;2022-11-15T09:33:12;14.80;95.10
50544;DHT22;41176;44.032;20.900;2022-11-15T09:35:38;14.70;94.80
50544;DHT22;41176;44.032;20.900;2022-11-15T09:38:03;14.70;95.00
50544;DHT22;41176;44.032;20.900;2022-11-15T09:40:31;14.70;95.30
50544;DHT22;41176;44.032;20.900;2022-11-15T09:48:51;14.50;95.00
50544;DHT22;41176;44.032;20.900;2022-11-15T09:51:37;14.60;94.80
50544;DHT22;41176;44.032;20.900;2022-11-15T10:05:13;14.40;93.80
50544;DHT22;41176;44.032;20.900;2022-11-15T10:12:49;14.20;94.80
50544;DHT22;41176;44.032;20.900;2022-11-15T10:15:28;14.40;94.40
50544;DHT22;41176;44.032;20.900;2022-11-15T10:20:53;14.60;93.60
50544;DHT22;41176;44.032;20.900;2022-11-15T10:23:21;14.70;93.80
50544;DHT22;41176;44.032;20.900;2022-11-15T10:25:47;14.60;93.60
50544;DHT22;41176;44.032;20.900;2022-11-15T10:28:26;14.50;94.10
50544;DHT22;41176;44.032;20.900;2022-11-15T10:30:54;14.50;94.30
50544;DHT22;41176;44.032;20.900;2022-11-15T10:33:31;14.60;94.90
50544;DHT22;41176;44.032;20.900;2022-11-15T10:49:57;15.40;92.50
50544;DHT22;41176;44.032;20.900;2022-11-15T10:52:23;15.60;91.60
50544;DHT22;41176;44.032;20.900;2022-11-15T10:54:57;15.80;91.10
50544;DHT22;41176;44.032;20.900;2022-11-15T10:57:27;15.70;90.80
50544;DHT22;41176;44.032;20.900;2022-11-15T11:02:58;16.30;90.40
50544;DHT22;41176;44.032;20.900;2022-11-15T11:05:31;17.70;86.50
50544;DHT22;41176;44.032;20.900;2022-11-15T11:08:05;18.70;80.80
50544;DHT22;41176;44.032;20.900;2022-11-15T11:11:03;19.50;75.70
50544;DHT22;41176;44.032;20.900;2022-11-15T11:13:31;19.90;72.80
50544;DHT22;41176;44.032;20.900;2022-11-15T11:19:26;21.10;67.20
50544;DHT22;41176;44.032;20.900;2022-11-15T11:27:36;21.40;65.00
50544;DHT22;41176;44.032;20.900;2022-11-15T11:33:39;20.40;66.20
50544;DHT22;41176;44.032;20.900;2022-11-15T11:39:00;20.40;66.90
50544;DHT22;41176;44.032;20.900;2022-11-15T11:41:46;20.60;65.80
50544;DHT22;41176;44.032;20.900;2022-11-15T11:46:54;20.80;65.50
50544;DHT22;41176;44.032;20.900;2022-11-15T11:55:02;19.90;67.00
50544;DHT22;41176;44.032;20.900;2022-11-15T12:00:15;19.20;69.80
50544;DHT22;41176;44.032;20.900;2022-11-15T12:02:47;19.50;69.10
50544;DHT22;41176;44.032;20.900;2022-11-15T12:05:34;19.60;68.50
50544;DHT22;41176;44.032;20.900;2022-11-15T12:10:46;20.20;67.00
50544;DHT22;41176;44.032;20.900;2022-11-15T12:13:23;20.60;64.80
50544;DHT22;41176;44.032;20.900;2022-11-15T12:18:47;19.90;67.40
50544;DHT22;41176;44.032;20.900;2022-11-15T12:23:55;19.80;67.20
50544;DHT22;41176;44.032;20.900;2022-11-15T12:26:26;19.50;68.10
50544;DHT22;41176;44.032;20.900;2022-11-15T12:28:57;19.20;68.90
50544;DHT22;41176;44.032;20.900;2022-11-15T12:31:37;18.80;70.10
50544;DHT22;41176;44.032;20.900;2022-11-15T12:34:16;18.70;71.00
50544;DHT22;41176;44.032;20.900;2022-11-15T12:36:51;18.50;72.60
50544;DHT22;41176;44.032;20.900;2022-11-15T12:39:20;18.40;73.30
50544;DHT22;41176;44.032;20.900;2022-11-15T13:17:48;17.40;76.60
50544;DHT22;41176;44.032;20.900;2022-11-15T13:22:49;17.20;77.20
50544;DHT22;41176;44.032;20.900;2022-11-15T13:33:36;17.00;78.00
50544;DHT22;41176;44.032;20.900;2022-11-15T13:36:06;16.80;78.60
50544;DHT22;41176;44.032;20.900;2022-11-15T13:38:35;16.80;79.20
50544;DHT22;41176;44.032;20.900;2022-11-15T13:41:20;16.70;79.10
50544;DHT22;41176;44.032;20.900;2022-11-15T13:43:50;16.70;79.60
50544;DHT22;41176;44.032;20.900;2022-11-15T13:46:21;16.60;79.90
50544;DHT22;41176;44.032;20.900;2022-11-15T13:49:01;16.60;79.90
50544;DHT22;41176;44.032;20.900;2022-11-15T13:57:02;16.50;80.70
50544;DHT22;41176;44.032;20.900;2022-11-15T14:02:01;16.40;81.30
50544;DHT22;41176;44.032;20.900;2022-11-15T14:04:29;16.40;81.00
50544;DHT22;41176;44.032;20.900;2022-11-15T14:06:59;16.40;81.10
50544;DHT22;41176;44.032;20.900;2022-11-15T14:09:35;16.40;81.20
50544;DHT22;41176;44.032;20.900;2022-11-15T14:12:20;16.40;81.10
50544;DHT22;41176;44.032;20.900;2022-11-15T14:14:47;16.30;81.50
50544;DHT22;41176;44.032;20.900;2022-11-15T14:17:21;16.20;82.10
50544;DHT22;41176;44.032;20.900;2022-11-15T14:22:57;16.10;83.10
50544;DHT22;41176;44.032;20.900;2022-11-15T14:25:52;16.00;83.20
50544;DHT22;41176;44.032;20.900;2022-11-15T14:30:53;15.90;84.20
50544;DHT22;41176;44.032;20.900;2022-11-15T14:35:55;15.80;85.00
50544;DHT22;41176;44.032;20.900;2022-11-15T14:38:25;15.70;85.30
50544;DHT22;41176;44.032;20.900;2022-11-15T14:40:54;15.80;84.90
50544;DHT22;41176;44.032;20.900;2022-11-15T14:43:29;15.80;84.90
50544;DHT22;41176;44.032;20.900;2022-11-15T14:45:55;15.80;84.70
50544;DHT22;41176;44.032;20.900;2022-11-15T14:48:21;15.70;85.00
50544;DHT22;41176;44.032;20.900;2022-11-15T14:50:47;15.70;85.30
50544;DHT22;41176;44.032;20.900;2022-11-15T14:53:17;15.70;85.70
50544;DHT22;41176;44.032;20.900;2022-11-15T14:55:44;15.60;85.50
50544;DHT22;41176;44.032;20.900;2022-11-15T14:58:10;15.60;85.70
50544;DHT22;41176;44.032;20.900;2022-11-15T15:00:40;15.40;86.40
50544;DHT22;41176;44.032;20.900;2022-11-15T15:03:07;15.30;87.20
50544;DHT22;41176;44.032;20.900;2022-11-15T15:05:44;15.20;88.10
50544;DHT22;41176;44.032;20.900;2022-11-15T15:11:26;15.00;89.40
50544;DHT22;41176;44.032;20.900;2022-11-15T15:13:52;14.80;90.00
50544;DHT22;41176;44.032;20.900;2022-11-15T15:16:20;14.80;90.30
50544;DHT22;41176;44.032;20.900;2022-11-15T15:18:50;14.70;90.60
50544;DHT22;41176;44.032;20.900;2022-11-15T15:21:23;14.70;90.70
50544;DHT22;41176;44.032;20.900;2022-11-15T15:23:49;14.70;90.90
50544;DHT22;41176;44.032;20.900;2022-11-15T15:26:15;14.60;91.20
50544;DHT22;41176;44.032;20.900;2022-11-15T15:28:44;14.60;91.50
50544;DHT22;41176;44.032;20.900;2022-11-15T15:31:16;14.60;91.60
50544;DHT22;41176;44.032;20.900;2022-11-15T15:33:44;14.60;91.50
50544;DHT22;41176;44.032;20.900;2022-11-15T15:36:18;14.70;91.60
50544;DHT22;41176;44.032;20.900;2022-11-15T15:38:44;14.70;91.50
50544;DHT22;41176;44.032;20.900;2022-11-15T15:41:13;14.50;91.70
50544;DHT22;41176;44.032;20.900;2022-11-15T15:43:39;14.40;92.00
50544;DHT22;41176;44.032;20.900;2022-11-15T15:46:12;14.40;92.20
50544;DHT22;41176;44.032;20.900;2022-11-15T15:48:37;14.40;92.40
50544;DHT22;41176;44.032;20.900;2022-11-15T15:51:05;14.50;92.40
50544;DHT22;41176;44.032;20.900;2022-11-15T15:53:31;14.50;92.40
50544;DHT22;41176;44.032;20.900;2022-11-15T15:55:57;14.40;92.70
50544;DHT22;41176;44.032;20.900;2022-11-15T15:58:23;14.30;93.00
50544;DHT22;41176;44.032;20.900;2022-11-15T16:00:49;14.20;93.30
50544;DHT22;41176;44.032;20.900;2022-11-15T16:03:14;14.20;93.70
50544;DHT22;41176;44.032;20.900;2022-11-15T16:05:40;14.20;93.60
50544;DHT22;41176;44.032;20.900;2022-11-15T16:08:26;14.20;93.80
50544;DHT22;41176;44.032;20.900;2022-11-15T16:10:53;14.10;93.90
50544;DHT22;41176;44.032;20.900;2022-11-15T16:13:18;14.10;94.20
50544;DHT22;41176;44.032;20.900;2022-11-15T16:15:44;14.10;94.40
50544;DHT22;41176;44.032;20.900;2022-11-15T16:18:16;14.10;94.50
50544;DHT22;41176;44.032;20.900;2022-11-15T16:20:49;14.00;94.70
50544;DHT22;41176;44.032;20.900;2022-11-15T16:23:22;13.90;95.20
50544;DHT22;41176;44.032;20.900;2022-11-15T16:25:54;13.80;95.50
50544;DHT22;41176;44.032;20.900;2022-11-15T16:28:24;13.80;95.90
50544;DHT22;41176;44.032;20.900;2022-11-15T16:31:07;13.70;96.30
50544;DHT22;41176;44.032;20.900;2022-11-15T16:33:34;13.70;96.60
50544;DHT22;41176;44.032;20.900;2022-11-15T16:36:14;13.70;96.90
50544;DHT22;41176;44.032;20.900;2022-11-15T16:38:46;13.60;97.20
50544;DHT22;41176;44.032;20.900;2022-11-15T16:41:12;13.50;97.70
50544;DHT22;41176;44.032;20.900;2022-11-15T16:43:37;13.50;98.10
50544;DHT22;41176;44.032;20.900;2022-11-15T16:46:11;13.40;98.50
50544;DHT22;41176;44.032;20.900;2022-11-15T16:48:38;13.30;99.20
50544;DHT22;41176;44.032;20.900;2022-11-15T16:51:04;13.30;99.70
50544;DHT22;41176;44.032;20.900;2022-11-15T16:53:30;13.20;99.90
50544;DHT22;41176;44.032;20.900;2022-11-15T16:55:56;13.20;99.90
50544;DHT22;41176;44.032;20.900;2022-11-15T16:58:23;13.10;99.90
50544;DHT22;41176;44.032;20.900;2022-11-15T17:00:53;13.10;99.90
50544;DHT22;41176;44.032;20.900;2022-11-15T17:03:20;13.10;99.90
50544;DHT22;41176;44.032;20.900;2022-11-15T17:05:46;13.10;99.90
50544;DHT22;41176;44.032;20.900;2022-11-15T17:08:12;13.10;99.90
50544;DHT22;41176;44.032;20.900;2022-11-15T17:10:39;13.00;99.90
50544;DHT22;41176;44.032;20.900;2022-11-15T17:13:12;12.90;99.90
50544;DHT22;41176;44.032;20.900;2022-11-15T17:15:38;12.90;99.90
50544;DHT22;41176;44.032;20.900;2022-11-15T17:18:05;12.80;99.90
50544;DHT22;41176;44.032;20.900;2022-11-15T17:20:31;12.80;99.90
50544;DHT22;41176;44.032;20.900;2022-11-15T17:22:57;12.70;99.90
50544;DHT22;41176;44.032;20.900;2022-11-15T17:25:23;12.60;99.90
50544;DHT22;41176;44.032;20.900;2022-11-15T17:27:49;12.60;99.90
50544;DHT22;41176;44.032;20.900;2022-11-15T17:30:15;12.50;99.90
50544;DHT22;41176;44.032;20.900;2022-11-15T17:32:41;12.50;99.90
50544;DHT22;41176;44.032;20.900;2022-11-15T17:35:09;12.50;99.90
50544;DHT22;41176;44.032;20.900;2022-11-15T17:37:36;12.40;99.90
50544;DHT22;41176;44.032;20.900;2022-11-15T17:40:02;12.30;99.90
50544;DHT22;41176;44.032;20.900;2022-11-15T17:42:29;12.30;99.90
50544;DHT22;41176;44.032;20.900;2022-11-15T17:44:54;12.20;99.90
50544;DHT22;41176;44.032;20.900;2022-11-15T17:47:20;12.10;99.90
50544;DHT22;41176;44.032;20.900;2022-11-15T17:49:46;12.10;99.90
50544;DHT22;41176;44.032;20.900;2022-11-15T17:52:16;12.20;99.90
50544;DHT22;41176;44.032;20.900;2022-11-15T17:54:41;12.20;99.90
50544;DHT22;41176;44.032;20.900;2022-11-15T17:57:07;12.10;99.90
50544;DHT22;41176;44.032;20.900;2022-11-15T17:59:33;12.10;99.90
50544;DHT22;41176;44.032;20.900;2022-11-15T18:01:59;12.10;99.90
50544;DHT22;41176;44.032;20.900;2022-11-15T18:04:24;12.10;99.90
50544;DHT22;41176;44.032;20.900;2022-11-15T18:06:53;12.10;99.90
50544;DHT22;41176;44.032;20.900;2022-11-15T18:09:21;12.00;99.90
50544;DHT22;41176;44.032;20.900;2022-11-15T18:11:47;11.90;99.90
50544;DHT22;41176;44.032;20.900;2022-11-15T18:14:48;11.90;99.90
50544;DHT22;41176;44.032;20.900;2022-11-15T18:17:14;11.90;99.90
50544;DHT22;41176;44.032;20.900;2022-11-15T18:19:40;11.80;99.90
50544;DHT22;41176;44.032;20.900;2022-11-15T18:22:06;11.90;99.90
50544;DHT22;41176;44.032;20.900;2022-11-15T18:24:35;11.90;99.90
50544;DHT22;41176;44.032;20.900;2022-11-15T18:27:08;12.00;99.90
50544;DHT22;41176;44.032;20.900;2022-11-15T18:29:34;12.00;99.90
50544;DHT22;41176;44.032;20.900;2022-11-15T18:32:04;12.00;99.90
50544;DHT22;41176;44.032;20.900;2022-11-15T18:34:35;11.90;99.90